Tunnel City, WI (54662)

7:37 AM CDT on October 22, 2019 (GMT -0500)
Tomah | | Change Station
Active Advisory: Wind Advisory

Elev 1020 ft 43.97 °N, 90.55 °W | Updated 5 seconds ago

Overcast
Overcast
42.7 °F
Feels Like 43 °F
N
3
Wind Variable Wind from NW
Gusts 4.0 mph

Today
High -- | Low -- °F
--% Chance of Precip.
Yesterday
High -- | Low -- °F
Precip. -- in
Pressure 29.30 in
Visibility 10.0 miles
Clouds Overcast 1100 ft
Windchill 43 °F
Dew Point 42 °F
Humidity 97%
Rainfall 0.07 in
Snow Depth Not available.
7:25 AM 6:07 PM
Last Quarter, 39% visible
METAR KCMY 221215Z AUTO 26009G15KT 10SM OVC011 05/04 A2930 RMK AO2 T00480042
Pressure 29.30 in
Visibility 10.0 miles
Clouds Overcast 1100 ft
Windchill 43 °F
Dew Point 42 °F
Humidity 97%
Rainfall 0.07 in
Snow Depth Not available.
7:25 AM 6:07 PM
Last Quarter, 39% visible
METAR KCMY 221215Z AUTO 26009G15KT 10SM OVC011 05/04 A2930 RMK AO2 T00480042

Get Your Daily Forecast Email!

Thanks for signing up!

Be on the lookout for a verification email in your inbox.

You'll start receiving severe weather alerts in your inbox..

×

10-Day Weather Forecast

Almanac

Astronomy

Oct. 22, 2019 Rise Set
Actual Time
Civil Twilight
Nautical Twilight
Astronomical Twilight
Moon
Length of Visible Light
Length of Day
Tomorrow will be .
, % of the Moon is Illuminated

Today's Extremes

State Highs State Lows

Community

WunderPhotos

Category 6

Welcome to Category 6. This is the collective home for Weather Underground's featured writeups by Dr. Jeff Masters (right), Bob Henson (left), Chris Burt, and other regular contributors.

Nearby

Air Quality

  Air Quality AQ Index Pollutant
Not available.

Snow Depth

Station Depth Elevation

Earthquake Activity

City Distance Mag. Time & Date
Minimum magnitude displayed is 2.5.

Coastal Water Temperatures

Place Temperature

Stations

Nearby Weather Stations

Station Location Temp. Windchill Dew Point Humidity Wind Precip. Elev Updated Type
                   

Watches & Warnings

Wind Advisory
Issued: 4:11 AM CDT Oct. 22, 2019 – National Weather Service

... Wind Advisory remains in effect until 7 PM CDT this evening...

* what... west winds 15 to 30 mph with gusts up to 40 mph
expected.

* Where... southwest into central Wisconsin.

* When... until 7 PM CDT this evening.

* Impacts... gusty winds could blow around unsecured objects,
including Holiday decorations. Tree limbs could be blown down
and a few power outages may result.

Precautionary/preparedness actions...

Use extra caution when driving, especially if operating a high
profile vehicle. Secure outdoor objects.



04